Terminal Aerodrome Forecast
Issued by NWS Cleveland, OH

Home | Current Version | Previous Version | Text Only | Print | Product List | Glossary On
Versions: 1 2 3 4 5 6 7 8 9 10 11 12 13 14 15 16 17 18 19 20 21 22 23 24 25
000
FTUS41 KCLE 242300
TAFMFD
TAF
KMFD 242334Z 2500/2524 24022G40KT 6SM -SHRA BR VCTS OVC008CB
      TEMPO 2500/2502 2SM TSRA BR OVC012CB
     FM250200 24020G35KT P6SM -SHRA OVC010
     FM250400 25020G30KT P6SM -SHRA OVC012
     FM250800 25015G30KT 3SM -SHSN OVC008
     FM251100 25012G22KT P6SM OVC012
     FM251500 26012G24KT 6SM -SHSN OVC015=

USA.gov is the U.S. government's official web portal to all federal, state and local government web resources and services.